Time;durP1;ratioP1;P1;durP2;ratioP2;P2;SDS_P1;SDS_P2;PMS_P1;PMS_P2;Temp;Humidity;BMP_temperature;BMP_pressure;BME280_temperature;BME280_humidity;BME280_pressure;Samples;Min_cycle;Max_cycle;Signal;HPM_P1;HPM_P2
2022/08/08 00:02:12;;;;;;;;;;;14.60;99.90;;;;;;5025632;28;20308;-68
2022/08/08 00:04:41;;;;;;;;;;;14.60;99.90;;;;;;5020878;28;20037;-69
2022/08/08 00:07:14;;;;;;;;;;;14.60;99.90;;;;;;5013471;28;20015;-68
2022/08/08 00:09:47;;;;;;;;;;;14.60;99.90;;;;;;5026345;28;20422;-68
2022/08/08 00:12:14;;;;;;;;;;;14.50;99.90;;;;;;5029157;28;19932;-68
2022/08/08 00:14:47;;;;;;;;;;;14.50;99.90;;;;;;5026544;28;20020;-68
2022/08/08 00:17:17;;;;;;;;;;;14.50;99.90;;;;;;5029684;28;20309;-67
2022/08/08 00:19:45;;;;;;;;;;;14.40;99.90;;;;;;5024485;28;20028;-68
2022/08/08 00:22:15;;;;;;;;;;;14.40;99.90;;;;;;5027085;28;20036;-67
2022/08/08 00:24:43;;;;;;;;;;;14.30;99.90;;;;;;5020937;28;19929;-67
2022/08/08 00:27:12;;;;;;;;;;;14.30;99.90;;;;;;5021468;28;20857;-68
2022/08/08 00:29:43;;;;;;;;;;;14.20;99.90;;;;;;5022549;28;20012;-68
2022/08/08 00:32:13;;;;;;;;;;;14.20;99.90;;;;;;5022868;28;20573;-68
2022/08/08 00:37:37;;;;;;;;;;;14.10;99.90;;;;;;5017107;28;19936;-67
2022/08/08 00:40:13;;;;;;;;;;;14.10;99.90;;;;;;5027946;28;20291;-68
2022/08/08 00:42:51;;;;;;;;;;;14.00;99.90;;;;;;5025633;28;20079;-68
2022/08/08 00:45:33;;;;;;;;;;;14.00;99.90;;;;;;5015615;28;20019;-67
2022/08/08 00:48:31;;;;;;;;;;;14.00;99.90;;;;;;5021069;28;19933;-67
2022/08/08 00:51:16;;;;;;;;;;;14.00;99.90;;;;;;5022305;28;19971;-68
2022/08/08 00:54:03;;;;;;;;;;;13.90;99.90;;;;;;5012119;28;19976;-68
2022/08/08 00:56:52;;;;;;;;;;;13.80;99.90;;;;;;5026004;28;20024;-68
2022/08/08 00:59:37;;;;;;;;;;;13.70;99.90;;;;;;5028139;28;20015;-68
2022/08/08 01:02:11;;;;;;;;;;;13.70;99.90;;;;;;5027701;28;20015;-68
2022/08/08 01:04:55;;;;;;;;;;;13.60;99.90;;;;;;5021301;28;20016;-68
2022/08/08 01:07:39;;;;;;;;;;;13.70;99.90;;;;;;5022947;28;19933;-67
2022/08/08 01:10:28;;;;;;;;;;;13.70;99.90;;;;;;5026982;28;19951;-68
2022/08/08 01:13:06;;;;;;;;;;;13.60;99.90;;;;;;5016949;28;22488;-67
2022/08/08 01:15:43;;;;;;;;;;;13.60;99.90;;;;;;5022609;28;19931;-67
2022/08/08 01:18:31;;;;;;;;;;;13.60;99.90;;;;;;5017167;28;20016;-67
2022/08/08 01:21:16;;;;;;;;;;;13.70;99.90;;;;;;5022585;28;19925;-68
2022/08/08 01:23:57;;;;;;;;;;;13.60;99.90;;;;;;5030298;28;19925;-67
2022/08/08 01:26:35;;;;;;;;;;;13.60;99.90;;;;;;5017372;28;20365;-67
2022/08/08 01:29:02;;;;;;;;;;;;;;;;;;5030424;28;19976;-69
2022/08/08 01:31:50;;;;;;;;;;;13.50;99.90;;;;;;5029443;28;20011;-68
2022/08/08 01:34:17;;;;;;;;;;;;;;;;;;5028898;28;20028;-68
2022/08/08 01:36:44;;;;;;;;;;;;;;;;;;5015098;28;19926;-67
2022/08/08 01:39:11;;;;;;;;;;;;;;;;;;5024510;28;20380;-67
2022/08/08 01:41:38;;;;;;;;;;;;;;;;;;5026412;28;20398;-67
2022/08/08 01:44:05;;;;;;;;;;;;;;;;;;5024796;28;19975;-67
2022/08/08 01:46:32;;;;;;;;;;;;;;;;;;5029370;28;19929;-67
2022/08/08 01:48:59;;;;;;;;;;;;;;;;;;5029578;28;20016;-67
2022/08/08 01:51:26;;;;;;;;;;;;;;;;;;5029290;28;20473;-67
2022/08/08 01:53:53;;;;;;;;;;;;;;;;;;5030225;28;20307;-68
2022/08/08 01:56:20;;;;;;;;;;;;;;;;;;5032783;28;19956;-67
2022/08/08 01:58:47;;;;;;;;;;;;;;;;;;5019149;28;19936;-67
2022/08/08 02:01:14;;;;;;;;;;;;;;;;;;5023110;28;19925;-68
2022/08/08 02:03:41;;;;;;;;;;;;;;;;;;5026871;28;19925;-68
2022/08/08 02:06:08;;;;;;;;;;;;;;;;;;5026039;28;19932;-69
2022/08/08 02:08:42;;;;;;;;;;;13.40;99.90;;;;;;5017415;28;20024;-68
2022/08/08 02:11:12;;;;;;;;;;;13.20;99.90;;;;;;5020586;28;19961;-68
2022/08/08 02:13:45;;;;;;;;;;;13.10;99.90;;;;;;5030228;28;19975;-68
2022/08/08 02:16:16;;;;;;;;;;;13.10;99.90;;;;;;5029499;28;20136;-69
2022/08/08 02:18:46;;;;;;;;;;;13.10;99.90;;;;;;5030166;28;19929;-68
2022/08/08 02:24:05;;;;;;;;;;;13.10;99.90;;;;;;5029367;28;19952;-70
2022/08/08 02:26:33;;;;;;;;;;;13.00;99.90;;;;;;5025092;28;19925;-68
2022/08/08 02:29:05;;;;;;;;;;;12.90;99.90;;;;;;5027329;28;19929;-68
2022/08/08 02:31:39;;;;;;;;;;;12.90;99.90;;;;;;5027287;28;20028;-68
2022/08/08 02:34:10;;;;;;;;;;;12.90;99.90;;;;;;5026367;28;19929;-68
2022/08/08 02:36:45;;;;;;;;;;;12.90;99.90;;;;;;5030615;28;19968;-68
2022/08/08 02:39:31;;;;;;;;;;;12.90;99.90;;;;;;5030162;28;19961;-68
2022/08/08 02:42:16;;;;;;;;;;;12.80;99.90;;;;;;5030830;28;20016;-68
2022/08/08 02:44:52;;;;;;;;;;;12.90;99.90;;;;;;5028144;28;20296;-68
2022/08/08 02:47:35;;;;;;;;;;;12.90;99.90;;;;;;5018006;28;20016;-68
2022/08/08 02:50:20;;;;;;;;;;;12.80;99.90;;;;;;5029091;28;19925;-68
2022/08/08 02:53:05;;;;;;;;;;;12.70;99.90;;;;;;5026974;28;19925;-68
2022/08/08 02:55:52;;;;;;;;;;;12.70;99.90;;;;;;5026505;28;20397;-68
2022/08/08 02:58:37;;;;;;;;;;;12.60;99.90;;;;;;4999043;28;19971;-68
2022/08/08 03:01:18;;;;;;;;;;;12.60;99.90;;;;;;5018651;28;20025;-67
2022/08/08 03:04:15;;;;;;;;;;;12.60;99.90;;;;;;5023726;28;19980;-68
2022/08/08 03:07:15;;;;;;;;;;;12.60;99.90;;;;;;4967386;28;20504;-68
2022/08/08 03:10:00;;;;;;;;;;;12.70;99.90;;;;;;5017425;28;19968;-68
2022/08/08 03:12:56;;;;;;;;;;;12.60;99.90;;;;;;5025561;28;19925;-68
2022/08/08 03:15:44;;;;;;;;;;;12.60;99.90;;;;;;5018605;28;19925;-69
2022/08/08 03:18:15;;;;;;;;;;;12.60;99.90;;;;;;4994555;28;20004;-68
2022/08/08 03:20:49;;;;;;;;;;;12.60;99.90;;;;;;5027109;28;19925;-69
2022/08/08 03:23:17;;;;;;;;;;;12.60;99.90;;;;;;5028831;28;19972;-68
2022/08/08 03:25:44;;;;;;;;;;;12.50;99.90;;;;;;5028703;28;20019;-68
2022/08/08 03:28:15;;;;;;;;;;;12.60;99.90;;;;;;5027380;28;19925;-67
2022/08/08 03:30:43;;;;;;;;;;;12.50;99.90;;;;;;5028183;28;19964;-67
2022/08/08 03:33:17;;;;;;;;;;;12.50;99.90;;;;;;5028836;28;20020;-67
2022/08/08 03:35:45;;;;;;;;;;;12.50;99.90;;;;;;5028394;28;19925;-67
2022/08/08 03:38:12;;;;;;;;;;;12.50;99.90;;;;;;5029114;28;20360;-67
2022/08/08 03:40:40;;;;;;;;;;;12.60;99.90;;;;;;5028469;28;20369;-67
2022/08/08 03:43:09;;;;;;;;;;;12.60;99.90;;;;;;5027506;28;19932;-68
2022/08/08 03:45:36;;;;;;;;;;;12.50;99.90;;;;;;5029445;28;19960;-69
2022/08/08 03:48:04;;;;;;;;;;;12.50;99.90;;;;;;5023630;28;20361;-67
2022/08/08 03:50:31;;;;;;;;;;;12.50;99.90;;;;;;5026050;28;19925;-67
2022/08/08 03:53:02;;;;;;;;;;;12.50;99.90;;;;;;5024993;28;19983;-68
2022/08/08 03:55:28;;;;;;;;;;;12.50;99.90;;;;;;5029939;28;19936;-67
2022/08/08 03:57:56;;;;;;;;;;;12.40;99.90;;;;;;5020546;28;20008;-67
2022/08/08 04:00:24;;;;;;;;;;;12.30;99.90;;;;;;5023984;28;19983;-67
2022/08/08 04:02:55;;;;;;;;;;;12.20;99.90;;;;;;5012974;28;19968;-69
2022/08/08 04:05:24;;;;;;;;;;;12.20;99.90;;;;;;5027887;28;19968;-69
2022/08/08 04:07:51;;;;;;;;;;;12.10;99.90;;;;;;5022424;28;19983;-69
2022/08/08 04:10:17;;;;;;;;;;;12.10;99.90;;;;;;5016348;28;19932;-68
2022/08/08 04:12:44;;;;;;;;;;;12.10;99.90;;;;;;5020356;28;20472;-67
2022/08/08 04:15:12;;;;;;;;;;;12.00;99.90;;;;;;5021541;28;19968;-68
2022/08/08 04:17:39;;;;;;;;;;;12.10;99.90;;;;;;5026822;28;20004;-68
2022/08/08 04:20:06;;;;;;;;;;;12.10;99.90;;;;;;5022689;28;19932;-68
2022/08/08 04:22:33;;;;;;;;;;;12.20;99.90;;;;;;5028542;28;20015;-68
2022/08/08 04:25:00;;;;;;;;;;;12.20;99.90;;;;;;5022815;28;19936;-68
2022/08/08 04:27:26;;;;;;;;;;;12.20;99.90;;;;;;5029251;28;20345;-68
2022/08/08 04:29:53;;;;;;;;;;;12.20;99.90;;;;;;5025859;28;20346;-68
2022/08/08 04:32:21;;;;;;;;;;;12.30;99.90;;;;;;5023242;28;20025;-69
2022/08/08 04:34:48;;;;;;;;;;;12.20;99.90;;;;;;5025282;28;20519;-68
2022/08/08 04:37:14;;;;;;;;;;;12.30;99.90;;;;;;5026435;28;20308;-68
2022/08/08 04:39:41;;;;;;;;;;;12.30;99.90;;;;;;5027024;28;19968;-68
2022/08/08 04:42:08;;;;;;;;;;;12.30;99.90;;;;;;5028862;28;20474;-68
2022/08/08 04:44:35;;;;;;;;;;;12.40;99.90;;;;;;5027232;28;19976;-68
2022/08/08 04:47:02;;;;;;;;;;;12.40;99.90;;;;;;5029229;28;20005;-68
2022/08/08 04:49:30;;;;;;;;;;;12.50;99.90;;;;;;5023048;28;19960;-68
2022/08/08 04:51:57;;;;;;;;;;;12.50;99.90;;;;;;5022077;28;19925;-68
2022/08/08 04:54:23;;;;;;;;;;;12.60;99.90;;;;;;5023861;28;19929;-68
2022/08/08 04:56:50;;;;;;;;;;;12.70;99.90;;;;;;5029568;28;20004;-69
2022/08/08 04:59:17;;;;;;;;;;;12.70;99.90;;;;;;5027095;28;19957;-68
2022/08/08 05:01:43;;;;;;;;;;;12.70;99.90;;;;;;5028202;28;20011;-68
2022/08/08 05:04:10;;;;;;;;;;;12.80;99.90;;;;;;5025504;28;20025;-68
2022/08/08 05:06:38;;;;;;;;;;;12.80;99.90;;;;;;5030339;28;21147;-68
2022/08/08 05:09:05;;;;;;;;;;;12.80;99.90;;;;;;5026813;28;20070;-68
2022/08/08 05:11:32;;;;;;;;;;;12.90;99.90;;;;;;5026610;28;20005;-68
2022/08/08 05:13:59;;;;;;;;;;;13.00;99.90;;;;;;5025849;28;19964;-68
2022/08/08 05:16:25;;;;;;;;;;;13.10;99.90;;;;;;5021252;28;20455;-68
2022/08/08 05:18:52;;;;;;;;;;;13.20;99.90;;;;;;5016663;28;20349;-68
2022/08/08 05:21:19;;;;;;;;;;;13.50;99.90;;;;;;5025529;28;20348;-68
2022/08/08 05:23:47;;;;;;;;;;;13.50;99.90;;;;;;5027968;28;20028;-68
2022/08/08 05:26:14;;;;;;;;;;;13.60;99.90;;;;;;5031616;28;20007;-68
2022/08/08 05:28:41;;;;;;;;;;;13.70;99.90;;;;;;5031397;28;20012;-68
2022/08/08 05:31:10;;;;;;;;;;;13.70;99.90;;;;;;5026682;28;20009;-68
2022/08/08 05:33:37;;;;;;;;;;;13.80;99.90;;;;;;5028291;28;20024;-67
2022/08/08 05:36:04;;;;;;;;;;;13.80;99.90;;;;;;5016883;28;19968;-68
2022/08/08 05:38:34;;;;;;;;;;;13.90;99.90;;;;;;5026595;28;20024;-68
2022/08/08 05:41:03;;;;;;;;;;;14.00;99.90;;;;;;5030100;28;20359;-68
2022/08/08 05:43:31;;;;;;;;;;;14.10;99.90;;;;;;5027687;28;19932;-68
2022/08/08 05:45:59;;;;;;;;;;;14.30;99.90;;;;;;5024596;28;19929;-67
2022/08/08 05:48:26;;;;;;;;;;;14.40;99.90;;;;;;5025247;28;20380;-67
2022/08/08 05:50:52;;;;;;;;;;;14.50;99.90;;;;;;5028419;28;19968;-67
2022/08/08 05:53:24;;;;;;;;;;;14.60;99.90;;;;;;5025417;28;19964;-70
2022/08/08 05:55:52;;;;;;;;;;;14.70;99.90;;;;;;5032134;28;19933;-67
2022/08/08 05:58:20;;;;;;;;;;;14.90;99.90;;;;;;5023238;28;20015;-67
2022/08/08 06:00:48;;;;;;;;;;;15.20;99.90;;;;;;5021512;28;19961;-67
2022/08/08 06:03:16;;;;;;;;;;;16.10;99.90;;;;;;5028114;28;20023;-67
2022/08/08 06:05:46;;;;;;;;;;;16.40;99.90;;;;;;5024007;28;20008;-67
2022/08/08 06:08:13;;;;;;;;;;;16.40;99.90;;;;;;5022404;28;20668;-67
2022/08/08 06:10:40;;;;;;;;;;;16.20;99.90;;;;;;5018640;28;20012;-66
2022/08/08 06:13:07;;;;;;;;;;;15.90;99.90;;;;;;5019145;28;22162;-67
2022/08/08 06:15:36;;;;;;;;;;;15.80;99.90;;;;;;5027519;28;19933;-67
2022/08/08 06:18:03;;;;;;;;;;;15.70;99.90;;;;;;5019894;28;20348;-67
2022/08/08 06:20:30;;;;;;;;;;;15.70;99.90;;;;;;5013958;28;20011;-67
2022/08/08 06:22:57;;;;;;;;;;;;;;;;;;5014345;28;19933;-67
2022/08/08 06:25:24;;;;;;;;;;;15.90;99.90;;;;;;5023117;28;19965;-67
2022/08/08 06:27:52;;;;;;;;;;;16.00;99.90;;;;;;5019186;28;19929;-67
2022/08/08 06:30:19;;;;;;;;;;;16.00;99.90;;;;;;5013458;28;19930;-67
2022/08/08 06:32:50;;;;;;;;;;;16.00;99.90;;;;;;5016778;28;19936;-67
2022/08/08 06:35:17;;;;;;;;;;;16.20;99.90;;;;;;5022871;28;20002;-67
2022/08/08 06:37:45;;;;;;;;;;;16.30;99.90;;;;;;5026457;28;20336;-66
2022/08/08 06:40:13;;;;;;;;;;;16.40;99.90;;;;;;5023725;28;19925;-67
2022/08/08 06:42:41;;;;;;;;;;;16.60;99.90;;;;;;5028089;28;19971;-67
2022/08/08 06:45:08;;;;;;;;;;;16.60;99.90;;;;;;5032645;28;20342;-66
2022/08/08 06:47:34;;;;;;;;;;;16.80;99.90;;;;;;5033652;28;19959;-66
2022/08/08 06:50:03;;;;;;;;;;;16.90;99.90;;;;;;5030777;28;19968;-66
2022/08/08 06:52:31;;;;;;;;;;;17.10;99.90;;;;;;5030682;28;20400;-67
2022/08/08 06:55:00;;;;;;;;;;;17.20;99.90;;;;;;5027953;28;20008;-67
2022/08/08 06:57:27;;;;;;;;;;;17.20;99.90;;;;;;5024251;28;19972;-67
2022/08/08 06:59:53;;;;;;;;;;;17.40;99.90;;;;;;5024544;28;19968;-67
2022/08/08 07:02:23;;;;;;;;;;;17.40;99.90;;;;;;5028049;28;19976;-67
2022/08/08 07:04:52;;;;;;;;;;;17.70;99.90;;;;;;5021575;28;20015;-66
2022/08/08 07:07:23;;;;;;;;;;;18.90;99.90;;;;;;5024729;28;19972;-67
2022/08/08 07:09:52;;;;;;;;;;;20.10;99.90;;;;;;5019205;28;20300;-68
2022/08/08 07:12:22;;;;;;;;;;;20.90;99.90;;;;;;5020613;28;19942;-67
2022/08/08 07:14:52;;;;;;;;;;;21.40;99.90;;;;;;5027521;28;19925;-67
2022/08/08 07:17:21;;;;;;;;;;;22.10;99.90;;;;;;5030140;28;19980;-68
2022/08/08 07:19:54;;;;;;;;;;;21.90;99.90;;;;;;5029449;28;19988;-68
2022/08/08 07:22:24;;;;;;;;;;;22.20;99.90;;;;;;5019919;28;20278;-68
2022/08/08 07:24:52;;;;;;;;;;;22.10;99.90;;;;;;5028252;28;19964;-68
2022/08/08 07:27:23;;;;;;;;;;;23.30;99.90;;;;;;5017261;28;19925;-68
2022/08/08 07:29:50;;;;;;;;;;;23.10;99.90;;;;;;5023420;28;20571;-68
2022/08/08 07:32:17;;;;;;;;;;;22.50;99.90;;;;;;5027894;28;20023;-68
2022/08/08 07:34:44;;;;;;;;;;;22.50;99.90;;;;;;5023585;28;20340;-69
2022/08/08 07:37:11;;;;;;;;;;;22.80;99.90;;;;;;5030895;28;19972;-69
2022/08/08 07:39:41;;;;;;;;;;;23.70;99.90;;;;;;5020555;28;19933;-69
2022/08/08 07:42:09;;;;;;;;;;;24.20;99.90;;;;;;5024503;28;19925;-69
2022/08/08 07:44:37;;;;;;;;;;;23.40;99.90;;;;;;5029894;28;19929;-69
2022/08/08 07:47:04;;;;;;;;;;;22.70;99.90;;;;;;5026229;28;19972;-69
2022/08/08 07:49:31;;;;;;;;;;;23.10;99.90;;;;;;5023644;28;20464;-68
2022/08/08 07:51:58;;;;;;;;;;;22.20;99.90;;;;;;5017851;28;19926;-68
2022/08/08 07:54:30;;;;;;;;;;;21.90;99.90;;;;;;5019321;28;20447;-68
2022/08/08 07:57:02;;;;;;;;;;;22.80;99.90;;;;;;5025324;28;21549;-69
2022/08/08 07:59:34;;;;;;;;;;;22.50;99.90;;;;;;5021458;28;19925;-69
2022/08/08 08:02:02;;;;;;;;;;;21.70;99.90;;;;;;5021970;28;20022;-69
2022/08/08 08:04:30;;;;;;;;;;;21.80;99.90;;;;;;5022082;28;19929;-69
2022/08/08 08:06:58;;;;;;;;;;;21.40;99.90;;;;;;5023269;28;20015;-69
2022/08/08 08:09:25;;;;;;;;;;;22.40;99.90;;;;;;5023311;28;19988;-69
2022/08/08 08:11:52;;;;;;;;;;;22.30;99.90;;;;;;5028577;28;19925;-69
2022/08/08 08:14:24;;;;;;;;;;;22.50;99.90;;;;;;5028271;28;19972;-68
2022/08/08 08:16:50;;;;;;;;;;;22.20;99.90;;;;;;5023488;28;19964;-68
2022/08/08 08:19:18;;;;;;;;;;;21.80;99.90;;;;;;5025919;28;19979;-68
2022/08/08 08:21:45;;;;;;;;;;;22.20;99.90;;;;;;5022152;28;20043;-68
2022/08/08 08:24:12;;;;;;;;;;;22.90;99.90;;;;;;5021484;28;20023;-67
2022/08/08 08:26:39;;;;;;;;;;;23.10;99.90;;;;;;5021020;28;19971;-67
2022/08/08 08:29:06;;;;;;;;;;;23.10;99.40;;;;;;5018558;28;19973;-67
2022/08/08 08:31:34;;;;;;;;;;;23.00;98.90;;;;;;5018972;28;20400;-67
2022/08/08 08:34:01;;;;;;;;;;;23.50;98.30;;;;;;5022914;28;20408;-67
2022/08/08 08:36:28;;;;;;;;;;;23.70;96.90;;;;;;5017181;28;19940;-67
2022/08/08 08:38:55;;;;;;;;;;;22.60;99.00;;;;;;5018925;28;20380;-67
2022/08/08 08:41:22;;;;;;;;;;;22.80;99.90;;;;;;5014506;28;20411;-68
2022/08/08 08:43:49;;;;;;;;;;;22.80;99.90;;;;;;5017093;28;19953;-67
2022/08/08 08:46:16;;;;;;;;;;;23.50;99.60;;;;;;5018661;28;19925;-68
2022/08/08 08:48:45;;;;;;;;;;;23.20;99.30;;;;;;5016394;28;19955;-68
2022/08/08 08:51:12;;;;;;;;;;;23.30;97.80;;;;;;5018214;28;20022;-70
2022/08/08 08:53:42;;;;;;;;;;;23.70;97.60;;;;;;5015490;28;19983;-68
2022/08/08 08:56:10;;;;;;;;;;;23.80;97.10;;;;;;5019229;28;19932;-68
2022/08/08 08:58:40;;;;;;;;;;;23.70;97.30;;;;;;5024512;28;19936;-68
2022/08/08 09:01:09;;;;;;;;;;;24.70;94.00;;;;;;5013418;28;19932;-68
2022/08/08 09:03:36;;;;;;;;;;;;;;;;;;5019051;28;20653;-68
2022/08/08 09:06:03;;;;;;;;;;;;;;;;;;5016846;28;19925;-68
2022/08/08 09:08:32;;;;;;;;;;;23.30;69.40;;;;;;5017042;28;19932;-69
2022/08/08 09:11:00;;;;;;;;;;;24.60;58.40;;;;;;5020524;28;20307;-69
2022/08/08 09:13:26;;;;;;;;;;;25.00;61.50;;;;;;5017425;28;19987;-69
2022/08/08 09:15:53;;;;;;;;;;;25.30;59.00;;;;;;5017019;28;20046;-68
2022/08/08 09:18:20;;;;;;;;;;;25.50;57.60;;;;;;5014937;28;20086;-68
2022/08/08 09:20:47;;;;;;;;;;;24.80;58.90;;;;;;5018671;28;20394;-82
2022/08/08 09:23:14;;;;;;;;;;;24.10;57.70;;;;;;5023259;28;19967;-82
2022/08/08 09:25:43;;;;;;;;;;;23.60;61.90;;;;;;5025075;28;19948;-69
2022/08/08 09:28:10;;;;;;;;;;;24.80;60.70;;;;;;5017660;28;20288;-68
2022/08/08 09:30:38;;;;;;;;;;;25.40;55.40;;;;;;5021793;28;19929;-68
2022/08/08 09:33:05;;;;;;;;;;;25.80;52.30;;;;;;5014725;28;20549;-68
2022/08/08 09:35:33;;;;;;;;;;;25.10;55.50;;;;;;5016981;28;20020;-69
2022/08/08 09:38:01;;;;;;;;;;;24.90;56.00;;;;;;5014287;28;19943;-69
2022/08/08 09:40:29;;;;;;;;;;;25.00;54.50;;;;;;5020645;28;19925;-68
2022/08/08 09:43:05;;;;;;;;;;;25.40;49.70;;;;;;5022420;28;20497;-68
2022/08/08 09:45:32;;;;;;;;;;;25.10;49.80;;;;;;5017231;28;19979;-68
2022/08/08 09:48:02;;;;;;;;;;;24.10;48.70;;;;;;5014338;28;20349;-68
2022/08/08 09:50:29;;;;;;;;;;;24.50;52.40;;;;;;5022225;28;20051;-68
2022/08/08 09:52:57;;;;;;;;;;;24.60;51.70;;;;;;5008002;28;19956;-68
2022/08/08 09:55:25;;;;;;;;;;;25.20;49.10;;;;;;5016735;28;20055;-69
2022/08/08 09:57:57;;;;;;;;;;;25.00;48.10;;;;;;5019481;28;19981;-68
2022/08/08 10:00:25;;;;;;;;;;;24.40;49.30;;;;;;5017822;28;19933;-68
2022/08/08 10:02:52;;;;;;;;;;;24.80;49.30;;;;;;5011933;28;20355;-68
2022/08/08 10:05:20;;;;;;;;;;;24.00;52.50;;;;;;5021917;28;19925;-68
2022/08/08 10:07:57;;;;;;;;;;;24.50;50.70;;;;;;5017145;28;20016;-68
2022/08/08 10:10:24;;;;;;;;;;;24.30;51.20;;;;;;5023419;28;20346;-68
2022/08/08 10:12:51;;;;;;;;;;;23.50;54.20;;;;;;5022368;28;19972;-67
2022/08/08 10:15:17;;;;;;;;;;;22.90;54.80;;;;;;5023735;28;20028;-68
2022/08/08 10:17:47;;;;;;;;;;;23.30;54.00;;;;;;5022407;28;20062;-68
2022/08/08 10:20:14;;;;;;;;;;;23.10;55.50;;;;;;5020991;28;20051;-68
2022/08/08 10:22:43;;;;;;;;;;;22.70;54.50;;;;;;5019349;28;19980;-69
2022/08/08 10:25:13;;;;;;;;;;;22.70;56.90;;;;;;5023402;28;19931;-69
2022/08/08 10:27:40;;;;;;;;;;;22.80;55.00;;;;;;5025427;28;19995;-68
2022/08/08 10:30:08;;;;;;;;;;;22.90;56.40;;;;;;5023694;28;20700;-68
2022/08/08 10:32:40;;;;;;;;;;;23.10;54.90;;;;;;5018462;28;20024;-68
2022/08/08 10:35:11;;;;;;;;;;;22.70;56.60;;;;;;5018627;28;20575;-69
2022/08/08 10:37:41;;;;;;;;;;;22.80;56.80;;;;;;5020676;28;19925;-68
2022/08/08 10:40:12;;;;;;;;;;;23.10;57.80;;;;;;5015016;28;20018;-69
2022/08/08 10:42:40;;;;;;;;;;;23.00;56.30;;;;;;5020069;28;19925;-68
2022/08/08 10:45:08;;;;;;;;;;;23.00;55.00;;;;;;5018249;28;20024;-70
2022/08/08 10:47:34;;;;;;;;;;;22.90;55.50;;;;;;5018974;28;20345;-69
2022/08/08 10:50:02;;;;;;;;;;;23.00;55.90;;;;;;5015837;28;19936;-70
2022/08/08 10:52:31;;;;;;;;;;;23.10;55.30;;;;;;5026828;28;20016;-68
2022/08/08 10:54:58;;;;;;;;;;;23.00;55.10;;;;;;5017559;28;19955;-69
2022/08/08 10:57:25;;;;;;;;;;;23.40;54.90;;;;;;5019869;28;19933;-69
2022/08/08 10:59:52;;;;;;;;;;;23.40;54.10;;;;;;5019721;28;20437;-67
2022/08/08 11:02:23;;;;;;;;;;;23.00;53.80;;;;;;5010698;28;19967;-68
2022/08/08 11:04:50;;;;;;;;;;;23.10;54.10;;;;;;5009706;28;20014;-68
2022/08/08 11:07:24;;;;;;;;;;;23.20;54.20;;;;;;5023010;28;19925;-68
2022/08/08 11:09:52;;;;;;;;;;;23.20;54.00;;;;;;5029278;28;19968;-68
2022/08/08 11:12:18;;;;;;;;;;;23.30;54.80;;;;;;5026214;28;20027;-69
2022/08/08 11:14:55;;;;;;;;;;;23.70;54.00;;;;;;5023012;28;20206;-69
2022/08/08 11:17:25;;;;;;;;;;;23.70;52.30;;;;;;5023903;28;20377;-69
2022/08/08 11:19:52;;;;;;;;;;;24.00;53.00;;;;;;5023009;28;19980;-67
2022/08/08 11:22:23;;;;;;;;;;;24.40;52.00;;;;;;5024989;28;19928;-68
2022/08/08 11:24:50;;;;;;;;;;;24.70;52.50;;;;;;5025793;28;19932;-68
2022/08/08 11:27:18;;;;;;;;;;;24.70;51.90;;;;;;5013813;28;19968;-68
2022/08/08 11:29:46;;;;;;;;;;;24.50;52.10;;;;;;5023355;28;19925;-68
2022/08/08 11:32:14;;;;;;;;;;;24.30;53.30;;;;;;5024237;28;19925;-69
2022/08/08 11:34:42;;;;;;;;;;;23.90;53.60;;;;;;5023904;28;19925;-68
2022/08/08 11:37:09;;;;;;;;;;;23.90;53.80;;;;;;5023743;28;20768;-68
2022/08/08 11:39:37;;;;;;;;;;;23.70;55.00;;;;;;5021993;28;19926;-69
2022/08/08 11:42:04;;;;;;;;;;;23.90;54.10;;;;;;5024032;28;19967;-69
2022/08/08 11:44:32;;;;;;;;;;;24.10;53.90;;;;;;5009643;28;19925;-68
2022/08/08 11:46:59;;;;;;;;;;;23.30;55.20;;;;;;5019185;28;19933;-68
2022/08/08 11:49:26;;;;;;;;;;;23.80;55.60;;;;;;5022786;28;20023;-69
2022/08/08 11:51:54;;;;;;;;;;;24.00;53.90;;;;;;5021188;28;19968;-69
2022/08/08 11:54:31;;;;;;;;;;;23.80;55.00;;;;;;5020947;28;19925;-69
2022/08/08 11:57:08;;;;;;;;;;;23.70;55.10;;;;;;5021064;28;20312;-69
2022/08/08 11:59:37;;;;;;;;;;;23.80;55.40;;;;;;5017491;28;19925;-69
2022/08/08 12:02:07;;;;;;;;;;;23.70;55.00;;;;;;5018137;28;19925;-70
2022/08/08 12:04:36;;;;;;;;;;;24.20;54.30;;;;;;5022285;28;19979;-69
2022/08/08 12:07:03;;;;;;;;;;;24.50;53.10;;;;;;5016102;28;19956;-69
2022/08/08 12:09:30;;;;;;;;;;;24.20;51.80;;;;;;5019699;28;19961;-69
2022/08/08 12:11:57;;;;;;;;;;;24.30;51.70;;;;;;5015155;28;19933;-69
2022/08/08 12:14:24;;;;;;;;;;;24.40;50.30;;;;;;5017644;28;19925;-69
2022/08/08 12:16:52;;;;;;;;;;;24.00;50.40;;;;;;5023615;28;19983;-69
2022/08/08 12:19:20;;;;;;;;;;;23.90;52.20;;;;;;5014020;28;20026;-69
2022/08/08 12:21:47;;;;;;;;;;;23.70;52.80;;;;;;5021197;28;19971;-69
2022/08/08 12:24:14;;;;;;;;;;;24.40;51.80;;;;;;5024236;28;20012;-69
2022/08/08 12:26:42;;;;;;;;;;;24.40;50.00;;;;;;5023397;28;19929;-67
2022/08/08 12:29:19;;;;;;;;;;;23.80;50.50;;;;;;5019247;28;19925;-68
2022/08/08 12:31:46;;;;;;;;;;;24.30;49.10;;;;;;5019721;28;19939;-68
2022/08/08 12:34:15;;;;;;;;;;;24.50;48.60;;;;;;5021199;28;20095;-68
2022/08/08 12:41:57;;;;;;;;;;;24.80;45.50;;;;;;3115702;26;19925;-67
2022/08/08 12:44:26;;;;;;;;;;;24.90;47.70;;;;;;5002150;28;20428;-67
2022/08/08 12:46:54;;;;;;;;;;;24.80;49.80;;;;;;5014037;28;19952;-67
2022/08/08 12:49:26;;;;;;;;;;;24.90;47.20;;;;;;5017707;28;19925;-66
2022/08/08 12:51:54;;;;;;;;;;;24.70;47.30;;;;;;5021996;28;19987;-66
2022/08/08 12:54:21;;;;;;;;;;;24.50;48.60;;;;;;5013321;28;20542;-66
2022/08/08 12:56:48;;;;;;;;;;;24.30;48.40;;;;;;5045574;22;19943;-65
2022/08/08 12:59:16;;;;;;;;;;;24.00;49.10;;;;;;5031856;28;20027;-67
2022/08/08 13:01:49;;;;;;;;;;;23.80;50.30;;;;;;5037257;28;19929;-68
2022/08/08 13:04:17;;;;;;;;;;;24.20;49.90;;;;;;5037744;28;19956;-68
2022/08/08 13:06:53;;;;;;;;;;;24.40;48.20;;;;;;5044979;28;19935;-69
2022/08/08 13:09:29;;;;;;;;;;;24.00;49.20;;;;;;5042361;28;20184;-69
2022/08/08 13:11:56;;;;;;;;;;;23.50;50.70;;;;;;5039855;28;19925;-68
2022/08/08 13:14:35;;;;;;;;;;;23.60;49.50;;;;;;5038052;28;19924;-68
2022/08/08 13:17:02;;;;;;;;;;;24.10;48.50;;;;;;5035971;28;19932;-68
2022/08/08 13:19:29;;;;;;;;;;;24.00;48.00;;;;;;5045763;28;19929;-68
2022/08/08 13:21:57;;;;;;;;;;;24.00;47.50;;;;;;5041854;28;19925;-68
2022/08/08 13:24:24;;;;;;;;;;;24.90;45.20;;;;;;5047487;28;19931;-68
2022/08/08 13:26:59;;;;;;;;;;;25.50;43.50;;;;;;5041408;28;20413;-68
2022/08/08 13:29:26;;;;;;;;;;;25.30;43.70;;;;;;5045161;28;19925;-66
2022/08/08 13:31:53;;;;;;;;;;;24.40;43.80;;;;;;5046803;28;19935;-66
2022/08/08 13:34:20;;;;;;;;;;;24.30;45.10;;;;;;5039051;28;19924;-67
2022/08/08 13:36:47;;;;;;;;;;;24.30;44.70;;;;;;5039499;28;19956;-66
2022/08/08 13:39:16;;;;;;;;;;;24.30;45.50;;;;;;5037824;28;20457;-66
2022/08/08 13:41:44;;;;;;;;;;;23.90;46.40;;;;;;5041377;28;19968;-66
2022/08/08 13:44:10;;;;;;;;;;;23.60;47.40;;;;;;5038692;28;20328;-68
2022/08/08 13:46:37;;;;;;;;;;;23.60;47.90;;;;;;5044835;28;19952;-67
2022/08/08 13:49:04;;;;;;;;;;;23.90;47.90;;;;;;5045295;28;20028;-67
2022/08/08 13:51:31;;;;;;;;;;;24.10;46.90;;;;;;5049609;28;20016;-67
2022/08/08 13:53:57;;;;;;;;;;;24.50;46.60;;;;;;5036343;28;19925;-66
2022/08/08 13:56:35;;;;;;;;;;;24.20;45.30;;;;;;5039496;28;19947;-67
2022/08/08 13:59:02;;;;;;;;;;;24.10;45.00;;;;;;5033784;28;19951;-65
2022/08/08 14:01:30;;;;;;;;;;;24.30;44.50;;;;;;5035130;28;19933;-65
2022/08/08 14:03:57;;;;;;;;;;;24.50;43.10;;;;;;5040825;28;20019;-66
2022/08/08 14:06:24;;;;;;;;;;;24.40;43.10;;;;;;5034889;28;21436;-66
2022/08/08 14:08:51;;;;;;;;;;;24.60;44.00;;;;;;5042619;28;19925;-67
2022/08/08 14:11:18;;;;;;;;;;;24.50;44.30;;;;;;5036455;28;20673;-67
2022/08/08 14:13:47;;;;;;;;;;;24.60;44.20;;;;;;5033146;28;20031;-67
2022/08/08 14:16:14;;;;;;;;;;;24.80;44.60;;;;;;5041980;28;19960;-67
2022/08/08 14:18:49;;;;;;;;;;;24.60;43.50;;;;;;5041815;28;19925;-66
2022/08/08 14:21:16;;;;;;;;;;;24.20;44.30;;;;;;5040488;28;20031;-66
2022/08/08 14:23:43;;;;;;;;;;;24.40;43.10;;;;;;5040969;28;19925;-67
2022/08/08 14:26:19;;;;;;;;;;;24.80;42.10;;;;;;5042226;28;20023;-66
2022/08/08 14:28:51;;;;;;;;;;;24.70;43.50;;;;;;5042377;28;19931;-66
2022/08/08 14:31:18;;;;;;;;;;;25.00;40.50;;;;;;5032766;28;20017;-66
2022/08/08 14:33:50;;;;;;;;;;;24.60;41.50;;;;;;5035866;28;19931;-67
2022/08/08 14:36:16;;;;;;;;;;;25.00;41.60;;;;;;5033959;28;20059;-67
2022/08/08 14:38:43;;;;;;;;;;;24.60;42.80;;;;;;5038328;28;20016;-67
2022/08/08 14:41:10;;;;;;;;;;;24.70;43.90;;;;;;5032081;28;19925;-67
2022/08/08 14:43:44;;;;;;;;;;;24.90;43.60;;;;;;5039927;28;19932;-67
2022/08/08 14:46:13;;;;;;;;;;;24.80;42.40;;;;;;5035617;28;20294;-65
2022/08/08 14:48:40;;;;;;;;;;;24.40;42.90;;;;;;5037518;28;19929;-65
2022/08/08 14:51:07;;;;;;;;;;;24.40;42.80;;;;;;5035258;28;19929;-65